LETO/TOJ METAR and TAF weather

Enter ICAO airport designator
Station Type Date Time Source
LETO METAR 2021/09/16 21:00 UTC NOAA

LETO 162100Z 04005KT 360V090 CAVOK 19/15 Q1020 NOSIG


Station Type Date Time Source
LETO Decoded METAR 2021/09/16 21:00 UTC NOAA

Madrid / Torrejon, Spain (LETO) 40-29N 003-27W 611M
Sep 16, 2021 - 05:00 PM EDT / 2021.09.16 2100 UTC
Wind: from the NE (040 degrees) at 6 MPH (5 KT) (direction variable):0
Visibility: greater than 7 mile(s):0
Temperature: 66 F (19 C)
Dew Point: 59 F (15 C)
Relative Humidity: 77%
Pressure (altimeter): 30.12 in. Hg (1020 hPa)
ob: LETO 162100Z 04005KT 360V090 CAVOK 19/15 Q1020 NOSIG
cycle: 21

Station Type Date Time Source
LETO TAF 2021/09/16 18:27 UTC NOAA

TAF LETO 161700Z 1618/1718 02007KT CAVOK TX28/1715Z TN14/1706Z
BECMG 1710/1712 23010KT

Example: see airport list